Time;durP1;ratioP1;P1;durP2;ratioP2;P2;SDS_P1;SDS_P2;PMS_P1;PMS_P2;Temp;Humidity;BMP_temperature;BMP_pressure;BME280_temperature;BME280_humidity;BME280_pressure;Samples;Min_cycle;Max_cycle;Signal;HPM_P1;HPM_P2
2022/12/23 00:01:18;;;;;;;144.60;42.13;;;6.40;99.90;;;;;;5099293;28;20048;-81
2022/12/23 00:04:04;;;;;;;101.20;36.50;;;6.40;99.90;;;;;;5072337;28;20085;-80
2022/12/23 00:06:50;;;;;;;77.55;32.88;;;6.40;99.90;;;;;;5090470;28;20448;-82
2022/12/23 00:09:37;;;;;;;72.05;30.73;;;6.40;99.90;;;;;;5090718;28;20080;-80
2022/12/23 00:15:29;;;;;;;118.53;39.17;;;6.40;99.90;;;;;;5075752;28;20411;-84
2022/12/23 00:18:15;;;;;;;197.65;44.05;;;6.40;99.90;;;;;;5097001;28;20062;-81
2022/12/23 00:21:05;;;;;;;277.15;47.70;;;6.40;99.90;;;;;;5070711;28;20067;-80
2022/12/23 00:23:51;;;;;;;88.38;33.65;;;6.40;99.90;;;;;;5072003;28;20047;-81
2022/12/23 00:26:37;;;;;;;109.97;36.95;;;6.40;99.90;;;;;;5088700;28;20411;-82
2022/12/23 00:29:24;;;;;;;218.20;48.17;;;6.40;99.90;;;;;;5058152;28;20105;-84
2022/12/23 00:32:10;;;;;;;207.60;50.08;;;6.40;99.90;;;;;;5099256;28;20048;-79
2022/12/23 00:34:56;;;;;;;192.05;49.63;;;6.30;99.90;;;;;;5075762;28;20052;-80
2022/12/23 00:37:42;;;;;;;326.23;58.90;;;6.30;99.90;;;;;;5090098;28;20141;-80
2022/12/23 00:43:33;;;;;;;131.52;43.05;;;6.30;99.90;;;;;;5091346;28;20041;-84
2022/12/23 00:46:19;;;;;;;152.70;44.90;;;6.30;99.90;;;;;;5074922;28;20080;-82
2022/12/23 00:52:12;;;;;;;260.42;62.55;;;6.30;99.90;;;;;;5093644;28;20075;-83
2022/12/23 00:54:58;;;;;;;142.98;48.63;;;6.30;99.90;;;;;;5101920;28;20054;-81
2022/12/23 00:57:45;;;;;;;137.20;46.55;;;6.30;99.90;;;;;;5077102;28;20064;-80
2022/12/23 01:06:40;;;;;;;177.70;52.80;;;6.30;99.90;;;;;;5074472;28;20406;-81
2022/12/23 01:09:26;;;;;;;150.93;44.70;;;6.30;99.90;;;;;;5075664;28;20104;-80
2022/12/23 01:12:13;;;;;;;176.90;48.10;;;6.30;99.90;;;;;;5099374;28;20051;-82
2022/12/23 01:14:59;;;;;;;111.45;39.67;;;6.30;99.90;;;;;;5082734;28;20107;-81
2022/12/23 01:17:45;;;;;;;116.57;43.80;;;6.30;99.90;;;;;;5062092;28;20489;-80
2022/12/23 01:20:32;;;;;;;125.68;41.80;;;6.30;99.90;;;;;;5075605;28;20522;-81
2022/12/23 01:23:18;;;;;;;176.15;48.60;;;6.30;99.90;;;;;;5075660;28;20166;-82
2022/12/23 01:26:06;;;;;;;111.10;40.38;;;6.30;99.90;;;;;;5076032;28;20096;-80
2022/12/23 01:28:56;;;;;;;111.13;38.45;;;6.30;99.90;;;;;;5104674;28;20056;-83
2022/12/23 01:31:43;;;;;;;145.05;45.15;;;6.30;99.90;;;;;;5084855;28;20058;-80
2022/12/23 01:34:29;;;;;;;93.03;37.03;;;6.20;99.90;;;;;;5084457;28;20052;-81
2022/12/23 01:37:15;;;;;;;98.68;39.70;;;6.20;99.90;;;;;;5079006;28;20044;-83
2022/12/23 01:40:01;;;;;;;358.98;71.55;;;6.20;99.90;;;;;;5100824;28;20594;-81
2022/12/23 01:42:47;;;;;;;108.85;43.40;;;6.20;99.90;;;;;;5101074;28;20048;-84
2022/12/23 01:45:33;;;;;;;164.35;47.65;;;6.20;99.90;;;;;;5094650;28;20202;-84
2022/12/23 01:48:24;;;;;;;226.90;41.22;;;6.20;99.90;;;;;;5085124;28;20073;-83
2022/12/23 01:51:17;;;;;;;408.90;59.78;;;6.20;99.90;;;;;;5093076;28;20040;-85
2022/12/23 01:54:04;;;;;;;725.72;90.07;;;6.10;99.90;;;;;;5092207;28;20048;-85
2022/12/23 01:56:51;;;;;;;687.13;78.30;;;6.10;99.90;;;;;;5079458;28;20396;-85
2022/12/23 02:05:48;;;;;;;412.43;57.17;;;6.00;99.90;;;;;;5074794;28;20458;-82
2022/12/23 02:11:45;;;;;;;325.40;53.80;;;6.00;99.90;;;;;;5078274;28;20100;-83
2022/12/23 02:18:00;;;;;;;330.73;55.92;;;6.00;99.90;;;;;;5073091;28;20087;-84
2022/12/23 02:21:05;;;;;;;575.20;77.50;;;6.00;99.90;;;;;;5073826;28;20048;-83
2022/12/23 02:24:16;;;;;;;500.98;67.53;;;6.00;99.90;;;;;;5073198;28;20067;-85
2022/12/23 02:27:22;;;;;;;352.50;58.70;;;6.00;99.90;;;;;;5091644;28;20157;-83
2022/12/23 02:30:52;;;;;;;429.27;57.72;;;6.00;99.90;;;;;;5099947;28;20040;-85
2022/12/23 02:33:57;;;;;;;484.48;67.93;;;6.00;99.90;;;;;;5091156;28;20499;-82
2022/12/23 02:37:02;;;;;;;626.50;86.03;;;6.00;99.90;;;;;;5076743;28;20518;-82
2022/12/23 02:39:57;;;;;;;479.58;62.28;;;6.00;99.90;;;;;;5058980;28;20094;-81
2022/12/23 02:43:17;;;;;;;584.15;79.95;;;6.00;99.90;;;;;;5060336;28;20476;-80
2022/12/23 02:46:16;;;;;;;219.00;46.05;;;5.90;99.90;;;;;;5076631;28;20056;-83
2022/12/23 02:49:18;;;;;;;408.23;58.85;;;5.90;99.90;;;;;;5085163;28;20044;-81
2022/12/23 02:52:10;;;;;;;250.02;50.53;;;6.00;99.90;;;;;;5090230;28;20055;-84
2022/12/23 02:55:02;;;;;;;168.82;42.63;;;5.90;99.90;;;;;;5072943;28;20048;-82
2022/12/23 02:57:53;;;;;;;190.10;45.10;;;5.90;99.90;;;;;;5072019;28;20055;-82
2022/12/23 03:00:42;;;;;;;152.50;43.10;;;6.00;99.90;;;;;;5078443;28;20448;-81
2022/12/23 03:03:29;;;;;;;353.95;56.15;;;5.90;99.90;;;;;;5073297;28;20051;-81
2022/12/23 03:06:38;;;;;;;435.80;70.93;;;6.00;99.90;;;;;;5059403;28;20047;-82
2022/12/23 03:09:38;;;;;;;639.97;81.15;;;6.00;99.90;;;;;;5078873;28;20059;-82
2022/12/23 03:12:34;;;;;;;507.27;67.60;;;6.00;99.90;;;;;;5088836;28;20055;-86
2022/12/23 03:15:32;;;;;;;509.15;75.38;;;6.00;99.90;;;;;;5062762;28;20044;-81
2022/12/23 03:18:20;;;;;;;437.42;59.15;;;5.90;99.90;;;;;;5058446;28;20411;-82
2022/12/23 03:21:23;;;;;;;466.15;69.32;;;5.90;99.90;;;;;;5072006;28;20055;-82
2022/12/23 03:24:14;;;;;;;303.27;52.58;;;5.90;99.90;;;;;;5071870;28;20565;-80
2022/12/23 03:27:16;;;;;;;374.45;61.50;;;5.90;99.90;;;;;;5077231;28;20055;-82
2022/12/23 03:30:24;;;;;;;185.23;42.40;;;5.90;99.90;;;;;;5058281;28;20561;-83
2022/12/23 03:33:18;;;;;;;108.75;35.88;;;5.90;99.90;;;;;;5072720;28;20051;-81
2022/12/23 03:36:23;;;;;;;127.28;38.33;;;5.90;99.90;;;;;;5073434;28;20094;-81
2022/12/23 03:39:13;;;;;;;350.45;57.00;;;5.90;99.90;;;;;;5075589;28;20419;-83
2022/12/23 03:42:27;;;;;;;212.82;46.80;;;6.00;99.90;;;;;;5074441;28;20075;-84
2022/12/23 03:45:26;;;;;;;257.15;51.33;;;5.90;99.90;;;;;;5045718;28;20040;-81
2022/12/23 03:48:26;;;;;;;372.13;60.92;;;6.00;99.90;;;;;;5094297;28;20137;-81
2022/12/23 03:51:24;;;;;;;262.77;53.33;;;6.00;99.90;;;;;;5089613;28;20102;-81
2022/12/23 03:54:15;;;;;;;325.55;58.42;;;6.00;99.90;;;;;;5090263;28;20040;-86
2022/12/23 03:57:06;;;;;;;304.08;56.08;;;6.00;99.90;;;;;;5061347;28;20048;-81
2022/12/23 03:59:53;;;;;;;384.92;59.10;;;6.00;99.90;;;;;;5057726;28;20093;-83
2022/12/23 04:03:10;;;;;;;402.40;68.38;;;5.90;99.90;;;;;;5089232;28;20499;-82
2022/12/23 04:06:01;;;;;;;191.35;47.80;;;5.90;99.90;;;;;;5094140;28;20051;-82
2022/12/23 04:08:48;;;;;;;230.10;48.78;;;5.90;99.90;;;;;;5095371;28;20056;-84
2022/12/23 04:11:36;;;;;;;267.17;53.92;;;5.90;99.90;;;;;;5079220;28;20040;-84
2022/12/23 04:14:22;;;;;;;246.35;54.38;;;5.90;99.90;;;;;;5088964;28;20254;-86
2022/12/23 04:17:09;;;;;;;396.83;67.70;;;5.90;99.90;;;;;;5072534;28;20055;-82
2022/12/23 04:19:55;;;;;;;175.23;44.17;;;5.90;99.90;;;;;;5071759;28;20040;-82
2022/12/23 04:22:44;;;;;;;127.40;39.95;;;5.90;99.90;;;;;;5057686;28;20138;-85
2022/12/23 04:25:30;;;;;;;132.43;38.67;;;5.90;99.90;;;;;;5072131;28;20205;-80
2022/12/23 04:28:17;;;;;;;247.02;54.13;;;5.90;99.90;;;;;;5079041;28;20060;-81
2022/12/23 04:31:03;;;;;;;195.10;44.67;;;5.90;99.90;;;;;;5079574;28;20047;-83
2022/12/23 04:33:49;;;;;;;120.15;36.63;;;5.90;99.90;;;;;;5094613;28;20048;-81
2022/12/23 04:36:36;;;;;;;131.10;38.80;;;5.90;99.90;;;;;;5094821;28;20287;-83
2022/12/23 04:39:22;;;;;;;91.00;33.67;;;5.90;99.90;;;;;;5079993;28;20134;-82
2022/12/23 04:42:08;;;;;;;281.35;49.65;;;5.90;99.90;;;;;;5095484;28;20052;-84
2022/12/23 04:44:54;;;;;;;114.88;36.03;;;5.90;99.90;;;;;;5094365;28;20048;-85
2022/12/23 04:47:41;;;;;;;116.97;35.20;;;5.90;99.90;;;;;;5082403;28;20132;-81
2022/12/23 04:50:27;;;;;;;183.20;41.67;;;5.90;99.90;;;;;;5076657;28;20051;-80
2022/12/23 04:53:13;;;;;;;266.63;46.92;;;5.80;99.90;;;;;;5098049;28;20044;-81
2022/12/23 04:55:59;;;;;;;189.57;41.47;;;5.90;99.90;;;;;;5093755;28;20058;-80
2022/12/23 04:58:45;;;;;;;182.23;38.95;;;5.90;99.90;;;;;;5075346;28;20122;-82
2022/12/23 05:01:32;;;;;;;250.10;49.70;;;5.80;99.90;;;;;;5093173;28;20121;-80
2022/12/23 05:04:18;;;;;;;495.13;67.63;;;5.90;99.90;;;;;;5064833;28;20044;-83
2022/12/23 05:07:04;;;;;;;507.58;62.22;;;5.90;99.90;;;;;;5094263;28;20437;-80
2022/12/23 05:09:50;;;;;;;88.95;29.45;;;5.80;99.90;;;;;;5092858;28;20107;-80
2022/12/23 05:12:37;;;;;;;111.22;29.85;;;5.80;99.90;;;;;;5075236;28;20090;-81
2022/12/23 05:15:23;;;;;;;106.20;28.30;;;5.80;99.90;;;;;;5074402;28;20048;-80
2022/12/23 05:18:09;;;;;;;320.98;47.40;;;5.80;99.90;;;;;;5075590;28;20043;-80
2022/12/23 05:20:56;;;;;;;405.67;50.20;;;5.80;99.90;;;;;;5074301;28;20048;-85
2022/12/23 05:23:42;;;;;;;202.45;35.40;;;5.90;99.90;;;;;;5083872;28;20107;-82
2022/12/23 05:26:28;;;;;;;316.88;39.75;;;5.80;99.90;;;;;;5075148;28;20527;-80
2022/12/23 05:29:15;;;;;;;455.15;57.05;;;5.80;99.90;;;;;;5092042;28;20093;-80
2022/12/23 05:32:01;;;;;;;354.67;40.08;;;5.80;99.90;;;;;;5092507;28;20055;-82
2022/12/23 05:34:47;;;;;;;253.55;35.67;;;5.90;99.90;;;;;;5077043;28;20372;-84
2022/12/23 05:37:33;;;;;;;306.13;42.95;;;5.80;99.90;;;;;;5096522;28;20127;-80
2022/12/23 05:40:20;;;;;;;309.52;41.03;;;5.80;99.90;;;;;;5078818;28;20040;-80
2022/12/23 05:43:06;;;;;;;273.85;40.00;;;5.80;99.90;;;;;;5077091;28;20054;-81
2022/12/23 05:45:52;;;;;;;172.18;30.13;;;5.80;99.90;;;;;;5092532;28;20147;-80
2022/12/23 05:48:39;;;;;;;189.73;33.10;;;5.80;99.90;;;;;;5092106;28;20048;-84
2022/12/23 05:51:25;;;;;;;214.93;31.55;;;5.80;99.90;;;;;;5094688;28;20114;-85
2022/12/23 05:54:11;;;;;;;224.50;31.40;;;5.80;99.90;;;;;;5096059;28;20058;-83
2022/12/23 05:56:57;;;;;;;144.05;26.17;;;5.80;99.90;;;;;;5092130;28;20519;-81
2022/12/23 05:59:44;;;;;;;110.80;25.65;;;5.70;99.90;;;;;;5097606;28;20052;-83
2022/12/23 06:02:30;;;;;;;132.73;27.17;;;5.70;99.90;;;;;;5091918;28;20055;-85
2022/12/23 06:05:16;;;;;;;94.32;22.95;;;5.70;99.90;;;;;;5076685;28;20044;-83
2022/12/23 06:08:03;;;;;;;107.40;23.25;;;5.70;99.90;;;;;;5059962;28;20083;-81
2022/12/23 06:10:49;;;;;;;134.15;26.85;;;5.70;99.90;;;;;;5092140;28;20063;-82
2022/12/23 06:13:35;;;;;;;69.28;19.83;;;5.70;99.90;;;;;;5090226;28;20048;-82
2022/12/23 06:16:22;;;;;;;116.25;24.30;;;5.70;99.90;;;;;;5059606;28;20431;-81
2022/12/23 06:19:08;;;;;;;147.50;26.80;;;5.70;99.90;;;;;;5101366;28;20044;-81
2022/12/23 06:21:54;;;;;;;149.13;28.35;;;5.70;99.90;;;;;;5093594;28;20076;-81
2022/12/23 06:24:41;;;;;;;116.60;25.40;;;5.70;99.90;;;;;;5073532;28;20049;-82
2022/12/23 06:27:27;;;;;;;147.50;25.10;;;5.60;99.90;;;;;;5073384;28;20059;-82
2022/12/23 06:30:14;;;;;;;130.18;25.58;;;5.60;99.90;;;;;;5091133;28;20055;-81
2022/12/23 06:33:00;;;;;;;101.93;23.42;;;5.60;99.90;;;;;;5091679;28;20044;-84
2022/12/23 06:35:46;;;;;;;105.18;22.42;;;5.60;99.90;;;;;;5095821;28;20079;-84
2022/12/23 06:38:33;;;;;;;136.05;26.77;;;5.60;99.90;;;;;;5091694;28;20093;-80
2022/12/23 06:41:20;;;;;;;100.78;23.27;;;5.60;99.90;;;;;;5095244;28;20055;-82
2022/12/23 06:44:06;;;;;;;89.60;20.63;;;5.60;99.90;;;;;;5073687;28;20603;-83
2022/12/23 06:46:52;;;;;;;96.97;23.15;;;5.60;99.90;;;;;;5072528;28;20087;-83
2022/12/23 06:49:38;;;;;;;79.32;18.83;;;5.60;99.90;;;;;;5092410;28;20492;-85
2022/12/23 06:52:25;;;;;;;99.60;20.33;;;5.60;99.90;;;;;;5097302;28;20044;-84
2022/12/23 06:55:11;;;;;;;99.45;19.98;;;5.60;99.90;;;;;;5073136;28;20477;-81
2022/12/23 06:57:57;;;;;;;120.57;23.80;;;5.60;99.90;;;;;;5090752;28;20401;-85
2022/12/23 07:00:43;;;;;;;64.97;18.02;;;5.60;99.90;;;;;;5093165;28;20052;-86
2022/12/23 07:03:30;;;;;;;70.28;18.05;;;5.50;99.90;;;;;;5094395;28;20066;-84
2022/12/23 07:06:16;;;;;;;74.38;17.52;;;5.50;99.90;;;;;;5077385;28;20673;-83
2022/12/23 07:09:02;;;;;;;78.97;19.05;;;5.50;99.90;;;;;;5058676;28;20483;-84
2022/12/23 07:11:48;;;;;;;69.10;17.80;;;5.50;99.90;;;;;;5072505;28;20412;-82
2022/12/23 07:14:34;;;;;;;54.40;15.77;;;5.60;99.90;;;;;;5071373;28;20125;-82
2022/12/23 07:17:21;;;;;;;70.63;17.80;;;5.60;99.90;;;;;;5058407;28;20040;-82
2022/12/23 07:20:08;;;;;;;55.63;15.10;;;5.50;99.90;;;;;;5077173;28;20503;-85
2022/12/23 07:22:56;;;;;;;47.42;14.15;;;5.60;99.90;;;;;;5091920;28;20048;-83
2022/12/23 07:25:42;;;;;;;62.75;15.75;;;5.60;99.90;;;;;;5076914;28;20048;-84
2022/12/23 07:28:28;;;;;;;58.03;16.95;;;5.60;99.90;;;;;;5090357;28;20052;-84
2022/12/23 07:31:15;;;;;;;61.03;16.38;;;5.60;99.90;;;;;;5090327;28;20043;-86
2022/12/23 07:34:01;;;;;;;68.93;15.85;;;5.60;99.90;;;;;;5077508;28;20416;-82
2022/12/23 07:36:47;;;;;;;60.42;16.02;;;5.60;99.90;;;;;;5072663;28;20055;-81
2022/12/23 07:39:33;;;;;;;68.43;14.95;;;5.70;99.90;;;;;;5072227;28;20098;-83
2022/12/23 07:42:20;;;;;;;64.47;15.02;;;5.70;99.90;;;;;;5089869;28;20083;-78
2022/12/23 07:45:07;;;;;;;54.50;14.57;;;5.70;99.90;;;;;;5075801;28;20126;-83
2022/12/23 07:47:54;;;;;;;51.35;15.15;;;5.70;99.90;;;;;;5069672;28;20522;-83
2022/12/23 07:50:40;;;;;;;75.65;17.35;;;5.70;99.90;;;;;;5089935;28;20070;-82
2022/12/23 07:53:27;;;;;;;75.22;17.45;;;5.70;99.90;;;;;;5071993;28;20099;-80
2022/12/23 07:56:13;;;;;;;55.80;14.18;;;5.70;99.90;;;;;;5075432;28;20048;-82
2022/12/23 07:58:59;;;;;;;72.35;17.77;;;5.70;99.90;;;;;;5089283;28;20118;-84
2022/12/23 08:01:46;;;;;;;62.15;15.50;;;5.70;99.90;;;;;;5094925;28;20063;-86
2022/12/23 08:04:32;;;;;;;54.67;15.55;;;5.70;99.90;;;;;;5074560;28;20059;-80
2022/12/23 08:07:18;;;;;;;54.72;16.00;;;5.70;99.90;;;;;;5072919;28;20083;-81
2022/12/23 08:10:05;;;;;;;60.70;14.95;;;5.70;99.90;;;;;;5071305;28;20086;-81
2022/12/23 08:12:51;;;;;;;36.10;12.50;;;5.70;99.90;;;;;;5091378;28;20062;-83
2022/12/23 08:15:38;;;;;;;70.93;16.73;;;5.70;99.90;;;;;;5093099;28;20079;-81
2022/12/23 08:18:25;;;;;;;52.80;14.20;;;5.70;99.90;;;;;;5090969;28;20040;-82
2022/12/23 08:21:17;;;;;;;53.70;14.70;;;5.70;99.90;;;;;;5089992;28;20508;-81
2022/12/23 08:24:04;;;;;;;58.55;15.73;;;5.70;99.90;;;;;;5061877;28;20052;-83
2022/12/23 08:26:50;;;;;;;69.35;17.38;;;5.70;99.90;;;;;;5080372;28;20135;-85
2022/12/23 08:29:39;;;;;;;48.50;14.02;;;5.60;99.90;;;;;;5093242;28;20063;-81
2022/12/23 08:32:26;;;;;;;83.40;18.40;;;5.60;99.90;;;;;;5058811;28;20036;-83
2022/12/23 08:35:12;;;;;;;37.10;12.48;;;5.60;99.90;;;;;;5091085;28;20395;-82
2022/12/23 08:37:59;;;;;;;45.53;13.50;;;5.60;99.90;;;;;;5091260;28;20046;-80
2022/12/23 08:40:45;;;;;;;49.72;15.93;;;5.50;99.90;;;;;;5072816;28;20403;-80
2022/12/23 08:43:32;;;;;;;81.93;17.80;;;5.50;99.90;;;;;;5079607;28;20605;-82
2022/12/23 08:46:18;;;;;;;68.43;16.30;;;5.50;99.90;;;;;;5074142;28;20052;-81
2022/12/23 08:49:05;;;;;;;69.90;16.63;;;5.50;99.90;;;;;;5071782;28;20480;-82
2022/12/23 08:51:51;;;;;;;80.65;17.02;;;5.50;99.90;;;;;;5071968;28;20056;-83
2022/12/23 08:54:37;;;;;;;40.70;13.38;;;5.40;99.90;;;;;;5074006;28;20052;-84
2022/12/23 08:57:24;;;;;;;53.33;15.25;;;5.40;99.90;;;;;;5079327;28;20121;-81
2022/12/23 09:00:10;;;;;;;68.63;16.77;;;5.40;99.90;;;;;;5057701;28;20403;-80
2022/12/23 09:02:56;;;;;;;64.10;16.63;;;5.50;99.90;;;;;;5059400;28;20052;-80
2022/12/23 09:05:43;;;;;;;54.67;16.02;;;5.50;99.90;;;;;;5078373;28;20526;-81
2022/12/23 09:08:29;;;;;;;83.20;20.45;;;5.60;99.90;;;;;;5090529;28;20106;-80
2022/12/23 09:11:19;;;;;;;84.65;20.35;;;5.60;99.90;;;;;;5075663;28;20044;-84
2022/12/23 09:14:07;;;;;;;41.45;14.93;;;5.60;99.90;;;;;;5076608;28;20051;-85
2022/12/23 09:16:53;;;;;;;75.63;21.17;;;5.70;99.90;;;;;;5096609;28;20040;-84
2022/12/23 09:19:39;;;;;;;88.35;25.13;;;5.70;99.90;;;;;;5081146;28;20087;-80
2022/12/23 09:22:26;;;;;;;89.15;26.27;;;5.70;99.90;;;;;;5093485;28;20545;-82
2022/12/23 09:25:13;;;;;;;100.35;30.13;;;5.70;99.90;;;;;;5080400;28;20076;-84
2022/12/23 09:27:59;;;;;;;84.25;27.48;;;5.80;99.90;;;;;;5101223;28;20056;-83
2022/12/23 09:30:45;;;;;;;66.53;22.30;;;5.80;99.90;;;;;;5074715;28;20052;-84
2022/12/23 09:33:31;;;;;;;68.15;23.63;;;5.90;99.90;;;;;;5092962;28;20056;-84
2022/12/23 09:36:18;;;;;;;80.75;25.50;;;6.00;99.90;;;;;;5094522;28;20059;-84
2022/12/23 09:39:05;;;;;;;88.85;26.48;;;6.20;99.90;;;;;;5095872;28;20127;-82
2022/12/23 09:42:14;;;;;;;83.22;27.52;;;6.40;99.90;;;;;;5092353;28;20048;-80
2022/12/23 09:45:03;;;;;;;75.18;25.70;;;6.40;99.90;;;;;;5076836;28;20044;-84
2022/12/23 09:47:54;;;;;;;101.50;27.80;;;6.50;99.90;;;;;;5098681;28;20052;-81
2022/12/23 09:50:41;;;;;;;82.50;24.85;;;6.50;99.90;;;;;;5075147;28;20138;-81
2022/12/23 09:53:51;;;;;;;60.40;20.80;;;6.60;99.90;;;;;;5076525;28;20073;-83
2022/12/23 09:56:57;;;;;;;72.13;22.52;;;6.60;99.90;;;;;;5076312;28;20056;-85
2022/12/23 10:00:11;;;;;;;52.83;20.23;;;6.60;99.90;;;;;;5092016;28;20077;-83
2022/12/23 10:03:03;;;;;;;80.75;26.33;;;6.80;99.90;;;;;;5092005;28;20457;-83
2022/12/23 10:05:57;;;;;;;67.75;25.58;;;7.30;99.90;;;;;;5093431;28;20561;-83
2022/12/23 10:08:47;;;;;;;69.82;23.35;;;7.80;99.90;;;;;;5102499;28;20068;-83
2022/12/23 10:11:38;;;;;;;64.03;22.50;;;7.90;99.90;;;;;;5092329;28;20101;-84
2022/12/23 10:14:30;;;;;;;71.18;23.58;;;8.10;99.90;;;;;;5091891;28;20147;-84
2022/12/23 10:17:27;;;;;;;56.30;20.85;;;8.50;99.90;;;;;;5092270;28;20050;-84
2022/12/23 10:20:22;;;;;;;49.95;17.55;;;8.60;99.90;;;;;;5060496;28;20055;-85
2022/12/23 10:23:16;;;;;;;40.85;15.52;;;8.60;99.90;;;;;;5075541;28;20052;-83
2022/12/23 10:26:28;;;;;;;41.25;17.65;;;8.50;99.90;;;;;;5096134;28;20048;-84
2022/12/23 10:29:16;;;;;;;33.58;14.73;;;8.30;99.90;;;;;;5074277;28;20081;-82
2022/12/23 10:32:44;;;;;;;37.17;15.60;;;8.20;99.90;;;;;;5082481;28;20530;-80
2022/12/23 10:35:49;;;;;;;32.67;14.02;;;8.10;99.90;;;;;;5074266;28;20048;-85
2022/12/23 10:39:03;;;;;;;36.67;12.87;;;8.00;99.90;;;;;;5097851;28;20043;-82
2022/12/23 10:42:23;;;;;;;34.05;14.20;;;7.90;99.90;;;;;;5073255;28;20059;-81
2022/12/23 10:45:37;;;;;;;33.22;12.45;;;7.90;99.90;;;;;;5091306;28;20515;-85
2022/12/23 10:48:28;;;;;;;30.27;13.10;;;7.90;99.90;;;;;;5101629;28;20079;-84
2022/12/23 10:51:42;;;;;;;35.88;12.90;;;7.80;99.90;;;;;;5078627;28;20040;-85
2022/12/23 10:54:33;;;;;;;29.90;12.50;;;7.80;99.90;;;;;;5072395;28;20105;-81
2022/12/23 10:57:19;;;;;;;25.13;11.27;;;7.80;99.90;;;;;;5073373;28;20519;-81
2022/12/23 11:00:19;;;;;;;30.75;12.30;;;7.90;99.90;;;;;;5059974;28;20044;-84
2022/12/23 11:03:15;;;;;;;34.80;12.20;;;7.90;99.90;;;;;;5096018;28;20048;-82
2022/12/23 11:06:04;;;;;;;27.27;11.63;;;7.90;99.90;;;;;;5091605;28;20518;-84
2022/12/23 11:08:52;;;;;;;38.58;12.57;;;7.90;99.90;;;;;;5074129;28;20131;-80
2022/12/23 11:11:54;;;;;;;29.88;11.10;;;7.90;99.90;;;;;;5098539;28;20044;-85
2022/12/23 11:14:48;;;;;;;35.13;12.70;;;7.90;99.90;;;;;;5091307;28;20428;-84
2022/12/23 11:17:34;;;;;;;28.75;11.35;;;7.90;99.90;;;;;;5076767;28;20052;-81
2022/12/23 11:20:21;;;;;;;35.67;12.25;;;7.90;99.90;;;;;;5089406;28;20052;-81
2022/12/23 11:23:29;;;;;;;32.63;11.68;;;7.90;99.90;;;;;;5090727;28;20105;-81
2022/12/23 11:26:19;;;;;;;31.35;11.90;;;7.90;99.90;;;;;;5090906;28;20106;-81
2022/12/23 11:29:11;;;;;;;29.50;10.50;;;7.90;99.90;;;;;;5090219;28;20055;-80
2022/12/23 11:31:57;;;;;;;29.23;11.07;;;7.90;99.90;;;;;;5084260;28;20075;-83
2022/12/23 11:34:45;;;;;;;27.55;10.48;;;8.00;99.90;;;;;;5081806;28;20044;-83
2022/12/23 11:37:40;;;;;;;20.80;9.90;;;8.00;99.90;;;;;;5091895;28;20048;-81
2022/12/23 11:40:45;;;;;;;24.73;9.20;;;8.10;99.90;;;;;;5089948;28;20062;-81
2022/12/23 11:43:32;;;;;;;19.15;7.88;;;8.10;99.90;;;;;;5091132;28;20174;-82
2022/12/23 11:46:28;;;;;;;22.95;9.00;;;8.00;99.90;;;;;;5073230;28;20052;-83
2022/12/23 11:49:19;;;;;;;16.33;7.47;;;8.10;99.90;;;;;;5070010;28;20112;-86
2022/12/23 11:52:15;;;;;;;19.95;7.03;;;8.10;99.90;;;;;;5100305;28;20052;-82
2022/12/23 11:55:04;;;;;;;18.70;7.13;;;8.10;99.90;;;;;;5072708;28;20062;-81
2022/12/23 11:57:51;;;;;;;17.55;6.95;;;8.10;99.90;;;;;;5073117;28;20256;-81
2022/12/23 12:00:48;;;;;;;21.70;7.00;;;8.20;99.90;;;;;;5093270;28;20044;-82
2022/12/23 12:03:43;;;;;;;19.10;6.65;;;8.20;99.90;;;;;;5092726;28;20102;-82
2022/12/23 12:06:31;;;;;;;15.67;6.77;;;8.20;99.90;;;;;;5102415;28;20083;-82
2022/12/23 12:09:19;;;;;;;19.95;7.22;;;8.20;99.90;;;;;;5097972;28;20805;-81
2022/12/23 12:12:12;;;;;;;14.35;6.90;;;8.20;99.90;;;;;;5089180;28;20101;-81
2022/12/23 12:14:59;;;;;;;15.13;6.03;;;8.20;99.90;;;;;;5076955;28;20051;-81
2022/12/23 12:17:51;;;;;;;21.20;6.80;;;8.20;99.90;;;;;;5067585;28;20054;-83
2022/12/23 12:20:43;;;;;;;19.58;7.75;;;8.20;99.90;;;;;;5076551;28;20052;-83
2022/12/23 12:23:50;;;;;;;17.85;7.53;;;8.20;99.90;;;;;;5094266;28;20044;-81
2022/12/23 12:26:37;;;;;;;27.08;8.75;;;8.20;99.90;;;;;;5096267;28;20125;-82
2022/12/23 12:29:51;;;;;;;17.65;8.15;;;8.20;99.90;;;;;;5080503;28;20051;-84
2022/12/23 12:32:43;;;;;;;26.85;9.57;;;8.20;99.90;;;;;;5090247;28;20825;-84
2022/12/23 12:36:23;;;;;;;24.65;8.38;;;8.10;99.90;;;;;;5089941;28;20048;-83
2022/12/23 12:39:18;;;;;;;26.23;9.20;;;8.10;99.90;;;;;;5002280;28;20069;-82
2022/12/23 12:42:13;;;;;;;17.75;8.00;;;8.10;99.90;;;;;;5058430;28;20455;-83
2022/12/23 12:45:20;;;;;;;23.50;9.38;;;8.10;99.90;;;;;;5091818;28;20395;-85
2022/12/23 12:48:31;;;;;;;19.63;8.77;;;8.10;99.90;;;;;;5093433;28;20087;-82
2022/12/23 12:51:38;;;;;;;19.85;8.60;;;8.00;99.90;;;;;;5097782;28;20075;-84
2022/12/23 12:54:39;;;;;;;21.70;9.73;;;8.00;99.90;;;;;;5104744;28;20036;-82
2022/12/23 12:57:25;;;;;;;20.08;8.82;;;8.00;99.90;;;;;;5061467;28;20134;-84
2022/12/23 13:00:22;;;;;;;20.95;10.02;;;8.00;99.90;;;;;;5075011;28;20067;-85
2022/12/23 13:03:08;;;;;;;24.25;8.98;;;8.00;99.90;;;;;;5093630;28;20055;-81
2022/12/23 13:06:20;;;;;;;22.33;8.15;;;7.90;99.90;;;;;;5062758;28;20440;-85
2022/12/23 13:09:15;;;;;;;19.65;9.02;;;7.90;99.90;;;;;;5067851;28;20096;-84
2022/12/23 13:12:06;;;;;;;18.20;6.95;;;7.90;99.90;;;;;;5061833;28;20043;-85
2022/12/23 13:15:03;;;;;;;20.48;6.72;;;7.80;99.90;;;;;;5078124;28;20051;-82
2022/12/23 13:17:58;;;;;;;17.73;6.75;;;7.80;99.90;;;;;;5095972;28;20066;-81
2022/12/23 13:20:57;;;;;;;19.30;7.60;;;7.80;99.90;;;;;;5074960;28;20074;-81
2022/12/23 13:23:49;;;;;;;19.45;7.57;;;7.80;99.90;;;;;;5078238;28;20066;-81
2022/12/23 13:26:50;;;;;;;21.35;7.40;;;7.80;99.90;;;;;;5074495;28;20046;-83
2022/12/23 13:30:05;;;;;;;21.70;7.93;;;7.70;99.90;;;;;;5074136;28;20108;-85
2022/12/23 13:33:12;;;;;;;20.10;8.25;;;7.70;99.90;;;;;;5093103;28;20408;-84
2022/12/23 13:36:13;;;;;;;22.45;8.68;;;7.70;99.90;;;;;;5095456;28;20515;-86
2022/12/23 13:39:02;;;;;;;23.08;7.80;;;7.70;99.90;;;;;;5078651;28;20048;-84
2022/12/23 13:41:51;;;;;;;17.90;8.05;;;7.70;99.90;;;;;;5093545;28;20097;-85
2022/12/23 13:44:38;;;;;;;15.05;7.00;;;7.60;99.90;;;;;;5093179;28;20051;-85
2022/12/23 13:47:39;;;;;;;24.15;8.40;;;7.60;99.90;;;;;;5060966;28;20048;-86
2022/12/23 13:50:32;;;;;;;28.00;9.63;;;7.60;99.90;;;;;;5077979;28;20048;-83
2022/12/23 13:53:27;;;;;;;24.00;11.38;;;7.60;99.90;;;;;;5074482;28;20083;-81
2022/12/23 13:56:46;;;;;;;23.33;10.57;;;7.60;99.90;;;;;;5091412;28;20048;-81
2022/12/23 13:59:41;;;;;;;28.13;11.07;;;7.50;99.90;;;;;;5053805;28;20052;-80
2022/12/23 14:02:36;;;;;;;;;;;7.50;99.90;;;;;;5081628;28;20070;-80
2022/12/23 14:05:50;;;;;;;29.38;12.88;;;7.50;99.90;;;;;;5080060;28;19924;-85
2022/12/23 14:08:41;;;;;;;30.88;12.40;;;7.50;99.90;;;;;;5075786;28;20125;-81
2022/12/23 14:11:30;;;;;;;31.77;12.95;;;7.40;99.90;;;;;;5092527;28;20499;-82
2022/12/23 14:14:22;;;;;;;33.95;13.18;;;7.40;99.90;;;;;;5061510;28;20092;-84
2022/12/23 14:17:25;;;;;;;34.00;13.40;;;7.40;99.90;;;;;;5072950;28;20185;-82
2022/12/23 14:20:28;;;;;;;38.75;15.48;;;7.30;99.90;;;;;;5092149;28;20535;-86
2022/12/23 14:23:39;;;;;;;40.97;15.48;;;7.30;99.90;;;;;;5079501;28;20052;-85
2022/12/23 14:26:40;;;;;;;39.55;14.80;;;7.30;99.90;;;;;;5091947;28;20055;-81
2022/12/23 14:29:37;;;;;;;35.85;14.10;;;7.30;99.90;;;;;;5073103;28;20385;-80
2022/12/23 14:32:29;;;;;;;36.55;14.32;;;7.30;99.90;;;;;;5073147;28;20048;-82
2022/12/23 14:35:18;;;;;;;31.38;12.43;;;7.20;99.90;;;;;;5074374;28;20062;-85
2022/12/23 14:38:09;;;;;;;27.83;13.15;;;7.20;99.90;;;;;;5077537;28;20399;-82
2022/12/23 14:41:17;;;;;;;33.33;14.02;;;7.20;99.90;;;;;;5073827;28;20048;-81
2022/12/23 14:44:35;;;;;;;32.83;13.48;;;7.20;99.90;;;;;;5091251;28;20139;-80
2022/12/23 14:47:30;;;;;;;25.00;12.25;;;7.10;99.90;;;;;;5096724;28;20052;-81
2022/12/23 14:50:32;;;;;;;30.00;12.38;;;7.10;99.90;;;;;;5093108;28;20059;-84
2022/12/23 14:53:24;;;;;;;25.25;11.07;;;7.10;99.90;;;;;;5096304;28;20095;-83
2022/12/23 14:56:22;;;;;;;28.85;13.32;;;7.00;99.90;;;;;;5091232;28;20450;-81
2022/12/23 14:59:47;;;;;;;28.70;12.43;;;7.10;99.90;;;;;;5091416;28;20105;-81
2022/12/23 15:02:36;;;;;;;26.92;12.23;;;7.00;99.90;;;;;;5073731;28;20428;-84
2022/12/23 15:05:23;;;;;;;27.20;12.13;;;7.00;99.90;;;;;;5067190;28;20052;-84
2022/12/23 15:08:29;;;;;;;25.27;12.13;;;7.00;99.90;;;;;;5092292;28;20052;-82
2022/12/23 15:11:29;;;;;;;27.85;13.55;;;6.90;99.90;;;;;;5090202;28;20117;-83